sensor_id;sensor_type;location;lat;lon;timestamp;pressure;altitude;pressure_sealevel;temperature;humidity
75945;BME280;64628;50.104;14.614;2023-06-14T00:01:25;98481.27;;;15.75;40.13
75945;BME280;64628;50.104;14.614;2023-06-14T00:03:48;98479.67;;;15.90;40.06
75945;BME280;64628;50.104;14.614;2023-06-14T00:06:05;98481.56;;;15.36;40.52
75945;BME280;64628;50.104;14.614;2023-06-14T00:08:32;98481.91;;;15.79;40.40
75945;BME280;64628;50.104;14.614;2023-06-14T00:11:04;98485.45;;;15.75;40.44
75945;BME280;64628;50.104;14.614;2023-06-14T00:13:23;98486.53;;;15.72;40.69
75945;BME280;64628;50.104;14.614;2023-06-14T00:15:55;98490.51;;;15.65;40.78
75945;BME280;64628;50.104;14.614;2023-06-14T00:18:19;98492.97;;;15.66;40.80
75945;BME280;64628;50.104;14.614;2023-06-14T00:20:47;98490.35;;;15.65;40.91
75945;BME280;64628;50.104;14.614;2023-06-14T00:25:30;98491.90;;;15.59;41.34
75945;BME280;64628;50.104;14.614;2023-06-14T00:28:01;98492.78;;;15.58;41.45
75945;BME280;64628;50.104;14.614;2023-06-14T00:32:54;98485.76;;;15.46;41.42
75945;BME280;64628;50.104;14.614;2023-06-14T00:35:13;98483.84;;;15.45;41.60
75945;BME280;64628;50.104;14.614;2023-06-14T00:44:54;98482.42;;;15.37;41.64
75945;BME280;64628;50.104;14.614;2023-06-14T00:47:26;98483.73;;;15.09;41.57
75945;BME280;64628;50.104;14.614;2023-06-14T00:49:44;98481.00;;;15.31;41.43
75945;BME280;64628;50.104;14.614;2023-06-14T00:54:46;98479.60;;;15.19;41.31
75945;BME280;64628;50.104;14.614;2023-06-14T00:57:08;98479.22;;;14.84;41.10
75945;BME280;64628;50.104;14.614;2023-06-14T00:59:27;98480.12;;;14.97;41.20
75945;BME280;64628;50.104;14.614;2023-06-14T01:04:17;98477.75;;;14.87;41.57
75945;BME280;64628;50.104;14.614;2023-06-14T01:06:53;98471.25;;;15.10;41.47
75945;BME280;64628;50.104;14.614;2023-06-14T01:11:47;98474.64;;;14.93;41.65
75945;BME280;64628;50.104;14.614;2023-06-14T01:14:04;98471.74;;;14.66;41.50
75945;BME280;64628;50.104;14.614;2023-06-14T01:16:33;98469.47;;;14.88;41.61
75945;BME280;64628;50.104;14.614;2023-06-14T01:18:53;98470.26;;;14.85;41.44
75945;BME280;64628;50.104;14.614;2023-06-14T01:28:36;98469.96;;;14.56;41.60
75945;BME280;64628;50.104;14.614;2023-06-14T01:31:03;98467.89;;;14.31;41.44
75945;BME280;64628;50.104;14.614;2023-06-14T01:33:28;98470.15;;;14.47;41.69
75945;BME280;64628;50.104;14.614;2023-06-14T01:35:52;98472.01;;;14.44;41.56
75945;BME280;64628;50.104;14.614;2023-06-14T01:38:13;98470.50;;;14.39;41.36
75945;BME280;64628;50.104;14.614;2023-06-14T01:40:45;98474.88;;;14.36;41.45
75945;BME280;64628;50.104;14.614;2023-06-14T01:43:10;98476.12;;;14.35;41.33
75945;BME280;64628;50.104;14.614;2023-06-14T01:45:35;98476.41;;;14.02;41.72
75945;BME280;64628;50.104;14.614;2023-06-14T01:48:00;98477.73;;;14.23;41.85
75945;BME280;64628;50.104;14.614;2023-06-14T01:55:11;98484.69;;;14.06;42.16
75945;BME280;64628;50.104;14.614;2023-06-14T02:00:12;98488.20;;;13.96;42.57
75945;BME280;64628;50.104;14.614;2023-06-14T02:02:31;98487.98;;;13.96;42.66
75945;BME280;64628;50.104;14.614;2023-06-14T02:09:53;98486.36;;;13.85;43.02
75945;BME280;64628;50.104;14.614;2023-06-14T02:12:13;98483.67;;;13.88;43.07
75945;BME280;64628;50.104;14.614;2023-06-14T02:14:31;98486.33;;;13.81;43.32
75945;BME280;64628;50.104;14.614;2023-06-14T02:34:08;98484.17;;;13.89;43.58
75945;BME280;64628;50.104;14.614;2023-06-14T02:48:43;98492.18;;;13.91;43.48
75945;BME280;64628;50.104;14.614;2023-06-14T03:12:51;98502.05;;;13.66;43.20
75945;BME280;64628;50.104;14.614;2023-06-14T03:17:42;98506.48;;;13.61;43.22
75945;BME280;64628;50.104;14.614;2023-06-14T03:20:10;98507.76;;;13.88;43.21
75945;BME280;64628;50.104;14.614;2023-06-14T03:22:29;98507.71;;;13.84;43.39
75945;BME280;64628;50.104;14.614;2023-06-14T03:25:01;98505.74;;;13.81;43.45
75945;BME280;64628;50.104;14.614;2023-06-14T03:32:15;98506.28;;;13.62;43.65
75945;BME280;64628;50.104;14.614;2023-06-14T03:34:36;98507.48;;;13.84;43.59
75945;BME280;64628;50.104;14.614;2023-06-14T03:37:01;98508.30;;;13.88;43.44
75945;BME280;64628;50.104;14.614;2023-06-14T03:39:22;98514.79;;;13.62;43.53
75945;BME280;64628;50.104;14.614;2023-06-14T03:41:50;98519.52;;;13.70;43.49
75945;BME280;64628;50.104;14.614;2023-06-14T03:44:08;98522.72;;;13.90;43.53
75945;BME280;64628;50.104;14.614;2023-06-14T03:46:39;98528.28;;;13.75;43.39
75945;BME280;64628;50.104;14.614;2023-06-14T03:49:09;98528.92;;;14.03;43.42
75945;BME280;64628;50.104;14.614;2023-06-14T03:51:26;98532.62;;;13.87;43.21
75945;BME280;64628;50.104;14.614;2023-06-14T04:13:28;98547.57;;;14.21;43.03
75945;BME280;64628;50.104;14.614;2023-06-14T04:15:40;98550.37;;;14.25;42.92
75945;BME280;64628;50.104;14.614;2023-06-14T04:18:07;98555.73;;;14.30;42.73
75945;BME280;64628;50.104;14.614;2023-06-14T04:20:29;98555.71;;;14.37;42.66
75945;BME280;64628;50.104;14.614;2023-06-14T04:25:25;98562.31;;;14.41;42.28
75945;BME280;64628;50.104;14.614;2023-06-14T04:27:44;98559.75;;;14.76;42.22
75945;BME280;64628;50.104;14.614;2023-06-14T04:30:12;98557.90;;;14.57;42.00
75945;BME280;64628;50.104;14.614;2023-06-14T04:35:14;98555.33;;;14.94;41.82
75945;BME280;64628;50.104;14.614;2023-06-14T04:39:57;98554.59;;;15.19;41.85
75945;BME280;64628;50.104;14.614;2023-06-14T04:44:55;98556.20;;;15.31;42.14
75945;BME280;64628;50.104;14.614;2023-06-14T04:49:38;98553.12;;;15.75;41.59
75945;BME280;64628;50.104;14.614;2023-06-14T04:52:04;98551.98;;;15.94;41.77
75945;BME280;64628;50.104;14.614;2023-06-14T04:54:31;98554.36;;;15.63;41.40
75945;BME280;64628;50.104;14.614;2023-06-14T04:56:54;98556.58;;;16.08;41.09
75945;BME280;64628;50.104;14.614;2023-06-14T04:59:21;98555.88;;;15.95;41.03
75945;BME280;64628;50.104;14.614;2023-06-14T05:01:37;98552.73;;;16.32;40.99
75945;BME280;64628;50.104;14.614;2023-06-14T05:04:08;98551.66;;;16.49;41.02
75945;BME280;64628;50.104;14.614;2023-06-14T05:09:03;98552.23;;;16.37;40.78
75945;BME280;64628;50.104;14.614;2023-06-14T05:23:31;98564.56;;;16.64;40.01
75945;BME280;64628;50.104;14.614;2023-06-14T05:30:46;98571.41;;;16.76;40.61
75945;BME280;64628;50.104;14.614;2023-06-14T05:35:30;98575.22;;;16.72;40.45
75945;BME280;64628;50.104;14.614;2023-06-14T05:37:59;98573.81;;;17.38;40.29
75945;BME280;64628;50.104;14.614;2023-06-14T05:40:38;98574.32;;;17.29;40.53
75945;BME280;64628;50.104;14.614;2023-06-14T05:45:35;98581.06;;;17.70;39.52
75945;BME280;64628;50.104;14.614;2023-06-14T05:47:41;98581.41;;;17.42;39.46
75945;BME280;64628;50.104;14.614;2023-06-14T05:50:07;98582.97;;;17.61;38.80
75945;BME280;64628;50.104;14.614;2023-06-14T05:52:31;98584.74;;;18.04;38.68
75945;BME280;64628;50.104;14.614;2023-06-14T05:55:03;98583.52;;;18.08;38.80
75945;BME280;64628;50.104;14.614;2023-06-14T05:57:23;98582.35;;;17.85;38.61
75945;BME280;64628;50.104;14.614;2023-06-14T06:04:54;98588.61;;;18.37;37.50
75945;BME280;64628;50.104;14.614;2023-06-14T08:10:57;98648.72;;;32.53;16.08
75945;BME280;64628;50.104;14.614;2023-06-14T08:18:02;98646.88;;;30.80;18.16
75945;BME280;64628;50.104;14.614;2023-06-14T08:49:47;98650.74;;;32.35;16.82
75945;BME280;64628;50.104;14.614;2023-06-14T08:54:30;98652.50;;;32.14;17.11
75945;BME280;64628;50.104;14.614;2023-06-14T08:59:27;98649.61;;;30.95;17.55
75945;BME280;64628;50.104;14.614;2023-06-14T09:18:57;98655.67;;;26.68;22.32
75945;BME280;64628;50.104;14.614;2023-06-14T09:21:16;98654.63;;;26.94;21.31
75945;BME280;64628;50.104;14.614;2023-06-14T09:25:58;98655.49;;;28.71;19.91
75945;BME280;64628;50.104;14.614;2023-06-14T09:28:27;98655.17;;;29.64;19.23
75945;BME280;64628;50.104;14.614;2023-06-14T09:30:49;98656.76;;;30.63;17.89
75945;BME280;64628;50.104;14.614;2023-06-14T09:33:17;98649.55;;;31.16;17.02
75945;BME280;64628;50.104;14.614;2023-06-14T09:35:40;98650.14;;;31.67;16.77
75945;BME280;64628;50.104;14.614;2023-06-14T09:38:07;98654.13;;;31.98;15.92
75945;BME280;64628;50.104;14.614;2023-06-14T09:40:34;98651.70;;;32.46;16.12
75945;BME280;64628;50.104;14.614;2023-06-14T09:42:58;98652.20;;;31.81;15.79
75945;BME280;64628;50.104;14.614;2023-06-14T09:45:24;98652.04;;;31.13;16.38
75945;BME280;64628;50.104;14.614;2023-06-14T09:47:50;98644.68;;;30.23;16.85
75945;BME280;64628;50.104;14.614;2023-06-14T09:50:23;98640.15;;;30.03;17.86
75945;BME280;64628;50.104;14.614;2023-06-14T09:52:42;98637.81;;;29.54;17.94
75945;BME280;64628;50.104;14.614;2023-06-14T09:55:13;98637.68;;;29.19;18.07
75945;BME280;64628;50.104;14.614;2023-06-14T09:57:33;98635.41;;;29.78;18.25
75945;BME280;64628;50.104;14.614;2023-06-14T09:59:59;98637.37;;;30.86;17.69
75945;BME280;64628;50.104;14.614;2023-06-14T10:02:35;98636.52;;;30.54;17.20
75945;BME280;64628;50.104;14.614;2023-06-14T10:04:56;98635.26;;;31.23;15.69
75945;BME280;64628;50.104;14.614;2023-06-14T10:07:18;98634.51;;;31.17;16.32
75945;BME280;64628;50.104;14.614;2023-06-14T10:09:41;98636.00;;;31.27;16.31
75945;BME280;64628;50.104;14.614;2023-06-14T10:14:38;98637.75;;;32.26;16.38
75945;BME280;64628;50.104;14.614;2023-06-14T10:17:10;98635.43;;;31.47;15.87
75945;BME280;64628;50.104;14.614;2023-06-14T10:22:08;98628.30;;;31.04;17.61
75945;BME280;64628;50.104;14.614;2023-06-14T10:29:10;98629.55;;;29.98;17.06
75945;BME280;64628;50.104;14.614;2023-06-14T10:31:43;98629.53;;;29.27;17.53
75945;BME280;64628;50.104;14.614;2023-06-14T10:34:09;98628.80;;;29.43;18.30
75945;BME280;64628;50.104;14.614;2023-06-14T10:36:31;98626.07;;;29.17;18.17
75945;BME280;64628;50.104;14.614;2023-06-14T10:43:45;98618.09;;;29.69;17.75
75945;BME280;64628;50.104;14.614;2023-06-14T10:51:06;98614.14;;;30.64;17.35
75945;BME280;64628;50.104;14.614;2023-06-14T10:55:56;98619.51;;;30.62;17.78
75945;BME280;64628;50.104;14.614;2023-06-14T10:58:16;98617.42;;;29.72;16.94
75945;BME280;64628;50.104;14.614;2023-06-14T11:00:45;98617.42;;;29.32;17.26
75945;BME280;64628;50.104;14.614;2023-06-14T11:10:29;98610.11;;;28.23;19.81
75945;BME280;64628;50.104;14.614;2023-06-14T11:15:20;98613.36;;;27.55;20.43
75945;BME280;64628;50.104;14.614;2023-06-14T11:17:50;98609.79;;;27.63;19.97
75945;BME280;64628;50.104;14.614;2023-06-14T11:20:12;98608.34;;;27.61;19.12
75945;BME280;64628;50.104;14.614;2023-06-14T11:37:06;98607.88;;;28.51;18.76
75945;BME280;64628;50.104;14.614;2023-06-14T11:39:30;98602.25;;;28.35;18.84
75945;BME280;64628;50.104;14.614;2023-06-14T11:42:02;98602.48;;;28.42;19.01
75945;BME280;64628;50.104;14.614;2023-06-14T11:54:05;98591.23;;;29.12;17.61
75945;BME280;64628;50.104;14.614;2023-06-14T12:03:58;98595.05;;;28.26;19.04
75945;BME280;64628;50.104;14.614;2023-06-14T12:13:38;98592.37;;;27.97;19.11
75945;BME280;64628;50.104;14.614;2023-06-14T12:15:59;98592.75;;;27.77;18.81
75945;BME280;64628;50.104;14.614;2023-06-14T12:18:34;98596.66;;;27.40;19.08
75945;BME280;64628;50.104;14.614;2023-06-14T12:20:59;98595.25;;;27.57;19.32
75945;BME280;64628;50.104;14.614;2023-06-14T12:25:45;98594.25;;;27.23;18.40
75945;BME280;64628;50.104;14.614;2023-06-14T12:28:08;98595.56;;;27.52;19.56
75945;BME280;64628;50.104;14.614;2023-06-14T12:30:38;98594.37;;;27.25;19.75
75945;BME280;64628;50.104;14.614;2023-06-14T12:33:00;98592.98;;;27.29;19.87
75945;BME280;64628;50.104;14.614;2023-06-14T12:35:23;98590.73;;;27.14;19.46
75945;BME280;64628;50.104;14.614;2023-06-14T12:42:39;98594.81;;;27.06;20.41
75945;BME280;64628;50.104;14.614;2023-06-14T12:50:11;98596.78;;;27.32;20.43
75945;BME280;64628;50.104;14.614;2023-06-14T12:52:20;98598.98;;;26.90;19.59
75945;BME280;64628;50.104;14.614;2023-06-14T12:54:44;98599.53;;;26.80;19.53
75945;BME280;64628;50.104;14.614;2023-06-14T12:57:17;98601.82;;;26.66;20.08
75945;BME280;64628;50.104;14.614;2023-06-14T13:09:19;98600.26;;;26.41;21.44
75945;BME280;64628;50.104;14.614;2023-06-14T13:16:34;98604.86;;;26.19;21.25
75945;BME280;64628;50.104;14.614;2023-06-14T13:19:00;98607.15;;;26.10;21.42
75945;BME280;64628;50.104;14.614;2023-06-14T13:36:11;98611.12;;;27.09;21.44
75945;BME280;64628;50.104;14.614;2023-06-14T13:38:40;98607.24;;;26.77;21.13
75945;BME280;64628;50.104;14.614;2023-06-14T13:43:20;98607.19;;;26.73;21.81
75945;BME280;64628;50.104;14.614;2023-06-14T13:45:53;98604.73;;;26.32;21.82
75945;BME280;64628;50.104;14.614;2023-06-14T13:48:19;98604.25;;;26.29;21.90
75945;BME280;64628;50.104;14.614;2023-06-14T13:50:38;98606.94;;;26.28;22.31
75945;BME280;64628;50.104;14.614;2023-06-14T13:53:02;98606.54;;;26.20;22.13
75945;BME280;64628;50.104;14.614;2023-06-14T14:00:36;98603.52;;;26.16;21.98
75945;BME280;64628;50.104;14.614;2023-06-14T14:02:56;98606.93;;;26.41;21.76
75945;BME280;64628;50.104;14.614;2023-06-14T14:05:12;98603.66;;;26.19;22.19
75945;BME280;64628;50.104;14.614;2023-06-14T14:07:36;98605.69;;;26.67;22.45
75945;BME280;64628;50.104;14.614;2023-06-14T14:12:27;98601.88;;;26.04;21.77
75945;BME280;64628;50.104;14.614;2023-06-14T14:14:53;98604.72;;;26.17;22.02
75945;BME280;64628;50.104;14.614;2023-06-14T14:17:20;98606.58;;;25.76;21.70
75945;BME280;64628;50.104;14.614;2023-06-14T14:19:53;98606.74;;;25.90;22.14
75945;BME280;64628;50.104;14.614;2023-06-14T14:22:10;98607.73;;;26.05;21.78
75945;BME280;64628;50.104;14.614;2023-06-14T14:24:37;98605.56;;;25.75;22.80
75945;BME280;64628;50.104;14.614;2023-06-14T14:29:36;98603.38;;;25.71;22.47
75945;BME280;64628;50.104;14.614;2023-06-14T14:31:53;98600.96;;;26.02;22.67
75945;BME280;64628;50.104;14.614;2023-06-14T14:34:22;98599.04;;;26.05;23.21
75945;BME280;64628;50.104;14.614;2023-06-14T14:36:50;98598.49;;;25.97;21.50
75945;BME280;64628;50.104;14.614;2023-06-14T14:39:10;98598.32;;;25.92;21.53
75945;BME280;64628;50.104;14.614;2023-06-14T14:41:45;98600.35;;;25.76;20.40
75945;BME280;64628;50.104;14.614;2023-06-14T14:44:06;98601.43;;;25.73;21.42
75945;BME280;64628;50.104;14.614;2023-06-14T14:46:27;98602.56;;;25.73;21.63
75945;BME280;64628;50.104;14.614;2023-06-14T14:48:59;98603.01;;;25.48;21.77
75945;BME280;64628;50.104;14.614;2023-06-14T14:51:27;98605.33;;;25.69;21.67
75945;BME280;64628;50.104;14.614;2023-06-14T14:53:49;98604.09;;;25.72;21.20
75945;BME280;64628;50.104;14.614;2023-06-14T14:56:09;98604.04;;;25.70;22.10
75945;BME280;64628;50.104;14.614;2023-06-14T14:58:38;98602.96;;;25.53;22.20
75945;BME280;64628;50.104;14.614;2023-06-14T15:01:01;98605.09;;;25.48;22.00
75945;BME280;64628;50.104;14.614;2023-06-14T15:03:34;98604.77;;;25.64;22.82
75945;BME280;64628;50.104;14.614;2023-06-14T15:05:52;98605.17;;;25.72;21.87
75945;BME280;64628;50.104;14.614;2023-06-14T15:08:17;98602.51;;;25.68;22.92
75945;BME280;64628;50.104;14.614;2023-06-14T15:10:48;98601.77;;;25.70;22.70
75945;BME280;64628;50.104;14.614;2023-06-14T15:13:17;98600.90;;;25.63;22.09
75945;BME280;64628;50.104;14.614;2023-06-14T15:30:14;98597.26;;;25.67;20.97
75945;BME280;64628;50.104;14.614;2023-06-14T15:32:47;98592.54;;;25.96;20.60
75945;BME280;64628;50.104;14.614;2023-06-14T15:35:06;98589.12;;;26.41;20.94
75945;BME280;64628;50.104;14.614;2023-06-14T15:37:33;98589.32;;;26.40;20.92
75945;BME280;64628;50.104;14.614;2023-06-14T15:39:54;98591.30;;;26.71;20.41
75945;BME280;64628;50.104;14.614;2023-06-14T15:42:27;98588.09;;;26.83;20.40
75945;BME280;64628;50.104;14.614;2023-06-14T15:44:42;98587.36;;;26.73;20.52
75945;BME280;64628;50.104;14.614;2023-06-14T15:47:16;98581.63;;;26.20;19.87
75945;BME280;64628;50.104;14.614;2023-06-14T15:49:38;98581.42;;;26.08;20.94
75945;BME280;64628;50.104;14.614;2023-06-14T15:52:12;98580.51;;;25.61;21.91
75945;BME280;64628;50.104;14.614;2023-06-14T15:54:34;98578.85;;;25.61;20.73
75945;BME280;64628;50.104;14.614;2023-06-14T15:56:54;98578.95;;;25.62;22.23
75945;BME280;64628;50.104;14.614;2023-06-14T15:59:16;98577.42;;;25.26;22.45
75945;BME280;64628;50.104;14.614;2023-06-14T16:01:39;98570.87;;;25.11;22.49
75945;BME280;64628;50.104;14.614;2023-06-14T16:04:04;98572.07;;;24.92;21.96
75945;BME280;64628;50.104;14.614;2023-06-14T16:06:29;98571.50;;;24.72;22.66
75945;BME280;64628;50.104;14.614;2023-06-14T16:09:04;98574.34;;;24.64;23.66
75945;BME280;64628;50.104;14.614;2023-06-14T16:11:20;98577.43;;;25.01;23.80
75945;BME280;64628;50.104;14.614;2023-06-14T16:14:00;98578.71;;;24.36;22.72
75945;BME280;64628;50.104;14.614;2023-06-14T16:21:10;98585.81;;;24.61;23.29
75945;BME280;64628;50.104;14.614;2023-06-14T16:23:26;98588.73;;;24.48;22.99
75945;BME280;64628;50.104;14.614;2023-06-14T16:26:10;98591.62;;;24.40;22.99
75945;BME280;64628;50.104;14.614;2023-06-14T16:35:43;98593.38;;;23.86;23.29
75945;BME280;64628;50.104;14.614;2023-06-14T16:38:00;98589.89;;;24.01;23.45
75945;BME280;64628;50.104;14.614;2023-06-14T16:40:31;98588.90;;;23.99;23.93
75945;BME280;64628;50.104;14.614;2023-06-14T16:43:01;98588.68;;;23.92;23.54
75945;BME280;64628;50.104;14.614;2023-06-14T16:47:37;98595.65;;;23.90;24.04
75945;BME280;64628;50.104;14.614;2023-06-14T16:50:12;98594.89;;;23.64;24.41
75945;BME280;64628;50.104;14.614;2023-06-14T16:52:32;98595.57;;;23.91;24.30
75945;BME280;64628;50.104;14.614;2023-06-14T16:54:59;98596.75;;;24.00;23.87
75945;BME280;64628;50.104;14.614;2023-06-14T16:57:22;98598.63;;;23.93;24.22
75945;BME280;64628;50.104;14.614;2023-06-14T16:59:46;98604.82;;;23.88;24.80
75945;BME280;64628;50.104;14.614;2023-06-14T17:02:09;98603.96;;;23.78;23.82
75945;BME280;64628;50.104;14.614;2023-06-14T17:04:44;98605.16;;;23.74;23.82
75945;BME280;64628;50.104;14.614;2023-06-14T17:07:17;98607.50;;;23.85;23.83
75945;BME280;64628;50.104;14.614;2023-06-14T17:09:23;98607.24;;;23.92;23.91
75945;BME280;64628;50.104;14.614;2023-06-14T17:14:26;98613.83;;;24.07;23.47
75945;BME280;64628;50.104;14.614;2023-06-14T17:16:40;98613.04;;;24.16;23.65
75945;BME280;64628;50.104;14.614;2023-06-14T17:19:07;98613.93;;;24.19;23.17
75945;BME280;64628;50.104;14.614;2023-06-14T17:21:44;98614.85;;;24.24;24.95
75945;BME280;64628;50.104;14.614;2023-06-14T17:24:02;98617.01;;;24.15;23.92
75945;BME280;64628;50.104;14.614;2023-06-14T17:26:32;98618.78;;;24.04;24.01
75945;BME280;64628;50.104;14.614;2023-06-14T17:28:49;98618.11;;;23.91;23.77
75945;BME280;64628;50.104;14.614;2023-06-14T17:31:11;98616.29;;;23.73;24.12
75945;BME280;64628;50.104;14.614;2023-06-14T17:36:16;98624.15;;;23.15;24.71
75945;BME280;64628;50.104;14.614;2023-06-14T17:38:41;98623.00;;;23.32;24.67
75945;BME280;64628;50.104;14.614;2023-06-14T17:46:02;98629.49;;;23.21;26.03
75945;BME280;64628;50.104;14.614;2023-06-14T17:48:13;98630.76;;;23.41;25.43
75945;BME280;64628;50.104;14.614;2023-06-14T17:50:40;98630.72;;;23.13;25.63
75945;BME280;64628;50.104;14.614;2023-06-14T17:53:01;98629.38;;;23.52;26.64
75945;BME280;64628;50.104;14.614;2023-06-14T17:55:28;98627.65;;;22.98;26.22
75945;BME280;64628;50.104;14.614;2023-06-14T18:00:26;98633.74;;;23.25;26.92
75945;BME280;64628;50.104;14.614;2023-06-14T18:02:53;98633.63;;;22.69;27.12
75945;BME280;64628;50.104;14.614;2023-06-14T18:05:12;98635.78;;;23.10;27.66
75945;BME280;64628;50.104;14.614;2023-06-14T18:07:33;98638.17;;;22.77;27.37
75945;BME280;64628;50.104;14.614;2023-06-14T18:10:06;98638.38;;;22.65;27.22
75945;BME280;64628;50.104;14.614;2023-06-14T18:12:20;98640.09;;;22.76;27.07
75945;BME280;64628;50.104;14.614;2023-06-14T18:19:41;98643.78;;;22.40;28.51
75945;BME280;64628;50.104;14.614;2023-06-14T18:22:05;98645.49;;;22.33;28.63
75945;BME280;64628;50.104;14.614;2023-06-14T18:24:34;98644.97;;;22.26;29.19
75945;BME280;64628;50.104;14.614;2023-06-14T18:27:01;98640.63;;;22.16;29.23
75945;BME280;64628;50.104;14.614;2023-06-14T18:29:18;98642.31;;;22.04;29.24
75945;BME280;64628;50.104;14.614;2023-06-14T18:31:51;98644.49;;;22.14;29.75
75945;BME280;64628;50.104;14.614;2023-06-14T18:34:15;98646.45;;;22.28;29.94
75945;BME280;64628;50.104;14.614;2023-06-14T18:36:35;98644.01;;;21.89;30.29
75945;BME280;64628;50.104;14.614;2023-06-14T18:39:04;98645.91;;;21.74;30.27
75945;BME280;64628;50.104;14.614;2023-06-14T18:41:32;98645.88;;;21.86;30.44
75945;BME280;64628;50.104;14.614;2023-06-14T18:43:53;98647.48;;;21.50;30.63
75945;BME280;64628;50.104;14.614;2023-06-14T18:46:12;98646.77;;;21.63;30.71
75945;BME280;64628;50.104;14.614;2023-06-14T18:51:14;98649.45;;;21.37;31.01
75945;BME280;64628;50.104;14.614;2023-06-14T18:56:09;98648.36;;;21.33;31.50
75945;BME280;64628;50.104;14.614;2023-06-14T19:00:53;98652.94;;;21.28;31.72
75945;BME280;64628;50.104;14.614;2023-06-14T19:03:21;98651.33;;;20.68;32.11
75945;BME280;64628;50.104;14.614;2023-06-14T19:05:42;98653.90;;;20.78;32.49
75945;BME280;64628;50.104;14.614;2023-06-14T19:08:11;98654.29;;;20.91;32.64
75945;BME280;64628;50.104;14.614;2023-06-14T19:10:37;98654.42;;;20.55;32.65
75945;BME280;64628;50.104;14.614;2023-06-14T19:13:03;98655.57;;;20.66;32.97
75945;BME280;64628;50.104;14.614;2023-06-14T19:17:58;98663.05;;;20.46;32.85
75945;BME280;64628;50.104;14.614;2023-06-14T19:20:15;98662.58;;;20.34;33.28
75945;BME280;64628;50.104;14.614;2023-06-14T19:22:41;98666.16;;;20.71;33.15
75945;BME280;64628;50.104;14.614;2023-06-14T19:42:14;98687.91;;;19.67;34.82
75945;BME280;64628;50.104;14.614;2023-06-14T19:46:55;98694.81;;;19.65;35.09
75945;BME280;64628;50.104;14.614;2023-06-14T20:11:02;98728.91;;;18.92;35.01
75945;BME280;64628;50.104;14.614;2023-06-14T20:13:28;98725.48;;;18.88;36.44
75945;BME280;64628;50.104;14.614;2023-06-14T20:15:53;98727.98;;;18.51;37.05
75945;BME280;64628;50.104;14.614;2023-06-14T20:18:20;98728.04;;;18.65;37.51
75945;BME280;64628;50.104;14.614;2023-06-14T20:20:44;98730.31;;;18.42;37.73
75945;BME280;64628;50.104;14.614;2023-06-14T20:23:10;98734.13;;;18.01;37.92
75945;BME280;64628;50.104;14.614;2023-06-14T20:25:36;98735.47;;;18.06;38.69
75945;BME280;64628;50.104;14.614;2023-06-14T20:28:01;98733.52;;;17.95;38.46
75945;BME280;64628;50.104;14.614;2023-06-14T20:30:26;98733.97;;;17.81;38.90
75945;BME280;64628;50.104;14.614;2023-06-14T20:32:51;98734.98;;;17.73;39.25
75945;BME280;64628;50.104;14.614;2023-06-14T20:35:17;98733.02;;;17.89;39.10
75945;BME280;64628;50.104;14.614;2023-06-14T20:37:43;98734.71;;;17.64;39.19
75945;BME280;64628;50.104;14.614;2023-06-14T20:40:20;98737.46;;;17.65;39.43
75945;BME280;64628;50.104;14.614;2023-06-14T20:42:34;98736.82;;;17.65;39.40
75945;BME280;64628;50.104;14.614;2023-06-14T20:45:00;98738.30;;;17.56;39.42
75945;BME280;64628;50.104;14.614;2023-06-14T20:47:25;98740.33;;;18.06;39.41
75945;BME280;64628;50.104;14.614;2023-06-14T20:49:50;98738.86;;;17.57;39.77
75945;BME280;64628;50.104;14.614;2023-06-14T20:52:15;98736.96;;;17.56;39.65
75945;BME280;64628;50.104;14.614;2023-06-14T20:54:41;98738.19;;;17.98;38.90
75945;BME280;64628;50.104;14.614;2023-06-14T20:57:07;98738.37;;;18.03;38.41
75945;BME280;64628;50.104;14.614;2023-06-14T20:59:32;98738.49;;;17.96;38.38
75945;BME280;64628;50.104;14.614;2023-06-14T21:01:58;98739.45;;;18.36;37.68
75945;BME280;64628;50.104;14.614;2023-06-14T21:04:23;98739.04;;;18.43;37.37
75945;BME280;64628;50.104;14.614;2023-06-14T21:06:48;98737.45;;;18.04;37.63
75945;BME280;64628;50.104;14.614;2023-06-14T21:09:13;98738.53;;;18.51;37.98
75945;BME280;64628;50.104;14.614;2023-06-14T21:11:39;98736.40;;;18.03;38.07
75945;BME280;64628;50.104;14.614;2023-06-14T21:14:04;98737.43;;;18.51;38.21
75945;BME280;64628;50.104;14.614;2023-06-14T21:16:30;98739.32;;;18.44;38.46
75945;BME280;64628;50.104;14.614;2023-06-14T21:41:00;98748.96;;;18.08;38.21
75945;BME280;64628;50.104;14.614;2023-06-14T23:05:58;98754.87;;;17.47;38.92
